Time,TemperatureF,DewpointF,PressureIn,WindDirection,WindDirectionDegrees,WindSpeedMPH,WindSpeedGustMPH,Humidity,HourlyPrecipIn,Conditions,Clouds,dailyrainin,SoftwareType,DateUTC
2013-08-23 11:17:00,89.2,73.0,29.94,West,265,0.0,-999.0,60,-99.99,,,0.00,weatherlink.com 1.10,2013-08-23 16:17:00,
2013-08-23 11:26:00,89.5,72.0,29.94,NE,37,0.0,-999.0,57,-99.99,,,0.00,weatherlink.com 1.10,2013-08-23 16:26:00,
2013-08-23 11:41:00,89.9,72.0,29.94,SSW,213,0.0,-999.0,56,-99.99,,,0.00,weatherlink.com 1.10,2013-08-23 16:41:00,
2013-08-23 11:57:00,89.9,72.0,29.94,SSW,205,0.0,-999.0,56,-99.99,,,0.00,weatherlink.com 1.10,2013-08-23 16:57:00,
2013-08-23 12:12:00,90.8,72.0,29.94,South,189,0.0,-999.0,55,-99.99,,,0.00,weatherlink.com 1.10,2013-08-23 17:12:00,
2013-08-23 12:27:00,90.2,70.0,29.93,NE,56,0.0,-999.0,52,-99.99,,,0.00,weatherlink.com 1.10,2013-08-23 17:27:00,
2013-08-23 12:42:00,92.9,72.0,29.93,NE,38,0.0,-999.0,50,-99.99,,,0.00,weatherlink.com 1.10,2013-08-23 17:42:00,
2013-08-23 12:57:00,95.1,72.0,29.92,WSW,237,0.0,-999.0,47,-99.99,,,0.00,weatherlink.com 1.10,2013-08-23 17:57:00,
2013-08-23 13:12:00,94.4,71.0,29.91,WSW,241,0.0,-999.0,46,-99.99,,,0.00,weatherlink.com 1.10,2013-08-23 18:12:00,
2013-08-23 13:27:00,94.8,72.0,29.91,NE,51,1.0,-999.0,47,-99.99,,,0.00,weatherlink.com 1.10,2013-08-23 18:27:00,
2013-08-23 13:42:00,95.4,71.0,29.91,ENE,63,1.0,-999.0,45,-99.99,,,0.00,weatherlink.com 1.10,2013-08-23 18:42:00,
2013-08-23 13:57:00,95.1,70.0,29.90,NE,55,3.0,-999.0,44,-99.99,,,0.00,weatherlink.com 1.10,2013-08-23 18:57:00,
2013-08-23 14:12:00,94.5,70.0,29.89,NE,56,1.0,-999.0,45,-99.99,,,0.00,weatherlink.com 1.10,2013-08-23 19:12:00,
2013-08-23 14:27:00,94.1,70.0,29.89,NE,55,0.0,-999.0,46,-99.99,,,0.00,weatherlink.com 1.10,2013-08-23 19:27:00,
2013-08-23 14:43:00,94.6,71.0,29.88,NNE,33,0.0,-999.0,46,-99.99,,,0.00,weatherlink.com 1.10,2013-08-23 19:43:00,
2013-08-23 14:58:00,96.1,69.0,29.87,North,5,1.0,-999.0,42,-99.99,,,0.00,weatherlink.com 1.10,2013-08-23 19:58:00,
2013-08-23 15:13:00,95.5,69.0,29.86,East,88,5.0,-999.0,42,-99.99,,,0.00,weatherlink.com 1.10,2013-08-23 20:13:00,
2013-08-23 15:28:00,95.6,69.0,29.86,NNE,22,0.0,-999.0,42,-99.99,,,0.00,weatherlink.com 1.10,2013-08-23 20:28:00,
2013-08-23 15:43:00,95.4,68.0,29.85,NNE,26,0.0,-999.0,41,-99.99,,,0.00,weatherlink.com 1.10,2013-08-23 20:43:00,
2013-08-23 15:58:00,96.1,69.0,29.84,NE,40,0.0,-999.0,41,-99.99,,,0.00,weatherlink.com 1.10,2013-08-23 20:58:00,
2013-08-23 16:13:00,94.8,67.0,29.83,NE,53,0.0,-999.0,40,-99.99,,,0.00,weatherlink.com 1.10,2013-08-23 21:13:00,
2013-08-23 16:28:00,94.7,67.0,29.82,ENE,78,0.0,-999.0,40,-99.99,,,0.00,weatherlink.com 1.10,2013-08-23 21:28:00,
2013-08-23 16:43:00,97.0,67.0,29.82,ENE,58,0.0,-999.0,37,-99.99,,,0.00,weatherlink.com 1.10,2013-08-23 21:43:00,
2013-08-23 16:59:00,98.1,67.0,29.82,ENE,75,0.0,-999.0,36,-99.99,,,0.00,weatherlink.com 1.10,2013-08-23 21:59:00,
2013-08-23 17:14:00,99.1,66.0,29.81,NNE,32,0.0,-999.0,34,-99.99,,,0.00,weatherlink.com 1.10,2013-08-23 22:14:00,
2013-08-23 17:29:00,98.4,66.0,29.81,East,82,0.0,-999.0,35,-99.99,,,0.00,weatherlink.com 1.10,2013-08-23 22:29:00,
2013-08-23 17:44:00,98.2,65.0,29.81,ENE,77,0.0,-999.0,34,-99.99,,,0.00,weatherlink.com 1.10,2013-08-23 22:44:00,
2013-08-23 17:59:00,97.9,65.0,29.81,ESE,119,1.0,-999.0,34,-99.99,,,0.00,weatherlink.com 1.10,2013-08-23 22:59:00,
2013-08-23 18:14:00,97.2,65.0,29.81,ESE,119,0.0,-999.0,35,-99.99,,,0.00,weatherlink.com 1.10,2013-08-23 23:14:00,
2013-08-23 18:29:00,96.5,65.0,29.80,East,81,0.0,-999.0,36,-99.99,,,0.00,weatherlink.com 1.10,2013-08-23 23:29:00,
2013-08-23 18:44:00,95.7,66.0,29.80,ENE,59,0.0,-999.0,37,-99.99,,,0.00,weatherlink.com 1.10,2013-08-23 23:44:00,
2013-08-23 18:59:00,95.1,66.0,29.80,NE,53,0.0,-999.0,38,-99.99,,,0.00,weatherlink.com 1.10,2013-08-23 23:59:00,
2013-08-23 19:14:00,94.6,65.0,29.81,NE,51,0.0,-999.0,38,-99.99,,,0.00,weatherlink.com 1.10,2013-08-24 00:14:00,
2013-08-23 19:29:00,93.9,65.0,29.81,NE,44,0.0,-999.0,39,-99.99,,,0.00,weatherlink.com 1.10,2013-08-24 00:29:00,
2013-08-23 19:44:00,93.3,66.0,29.82,NE,44,0.0,-999.0,40,-99.99,,,0.00,weatherlink.com 1.10,2013-08-24 00:44:00,
2013-08-23 19:59:00,92.5,66.0,29.82,NE,44,0.0,-999.0,41,-99.99,,,0.00,weatherlink.com 1.10,2013-08-24 00:59:00,
2013-08-23 20:15:00,91.7,65.0,29.83,NE,44,0.0,-999.0,41,-99.99,,,0.00,weatherlink.com 1.10,2013-08-24 01:15:00,
2013-08-23 20:30:00,91.0,65.0,29.83,NE,45,0.0,-999.0,42,-99.99,,,0.00,weatherlink.com 1.10,2013-08-24 01:30:00,
2013-08-23 20:45:00,90.3,65.0,29.84,NE,45,0.0,-999.0,43,-99.99,,,0.00,weatherlink.com 1.10,2013-08-24 01:45:00,
2013-08-23 21:00:00,89.2,66.0,29.84,NNW,334,0.0,-999.0,46,-99.99,,,0.00,weatherlink.com 1.10,2013-08-24 02:00:00,
2013-08-23 21:15:00,88.6,68.0,29.84,NNE,33,0.0,-999.0,50,-99.99,,,0.00,weatherlink.com 1.10,2013-08-24 02:15:00,
2013-08-23 21:30:00,88.4,68.0,29.85,NE,38,0.0,-999.0,51,-99.99,,,0.00,weatherlink.com 1.10,2013-08-24 02:30:00,
2013-08-23 21:45:00,88.1,68.0,29.86,West,262,0.0,-999.0,52,-99.99,,,0.00,weatherlink.com 1.10,2013-08-24 02:45:00,
2013-08-23 22:00:00,87.7,69.0,29.87,NW,310,0.0,-999.0,54,-99.99,,,0.00,weatherlink.com 1.10,2013-08-24 03:00:00,
2013-08-23 22:15:00,87.3,69.0,29.87,NW,311,0.0,-999.0,54,-99.99,,,0.00,weatherlink.com 1.10,2013-08-24 03:15:00,
2013-08-23 22:30:00,86.9,69.0,29.87,NNE,32,0.0,-999.0,55,-99.99,,,0.00,weatherlink.com 1.10,2013-08-24 03:30:00,
2013-08-23 22:45:00,86.4,69.0,29.87,NNE,33,0.0,-999.0,56,-99.99,,,0.00,weatherlink.com 1.10,2013-08-24 03:45:00,
2013-08-23 23:00:00,85.9,69.0,29.87,NNE,29,0.0,-999.0,58,-99.99,,,0.00,weatherlink.com 1.10,2013-08-24 04:00:00,
2013-08-23 23:15:00,85.2,69.0,29.88,North,5,0.0,-999.0,59,-99.99,,,0.00,weatherlink.com 1.10,2013-08-24 04:15:00,
2013-08-23 23:30:00,84.7,70.0,29.88,North,5,0.0,-999.0,61,-99.99,,,0.00,weatherlink.com 1.10,2013-08-24 04:30:00,
2013-08-23 23:46:00,84.3,70.0,29.88,North,360,0.0,-999.0,62,-99.99,,,0.00,weatherlink.com 1.10,2013-08-24 04:46:00,